createdAt,value
2019-02-15T00:00:06.218Z,22.90
2019-02-15T00:01:06.205Z,31.20
2019-02-15T00:02:06.212Z,39.20
2019-02-15T00:03:06.201Z,33.10
2019-02-15T00:04:06.227Z,33.30
2019-02-15T00:05:06.266Z,29.80
2019-02-15T00:06:06.215Z,23.90
2019-02-15T00:07:06.309Z,21.10
2019-02-15T00:08:06.225Z,22.00
2019-02-15T00:09:06.260Z,20.50
2019-02-15T00:10:06.308Z,19.30
2019-02-15T00:11:06.295Z,19.30
2019-02-15T00:12:06.240Z,19.30
2019-02-15T00:13:13.274Z,19.90
2019-02-15T00:14:06.251Z,19.80
2019-02-15T00:15:06.364Z,19.60
2019-02-15T00:16:06.256Z,21.10
2019-02-15T00:17:06.305Z,20.00
2019-02-15T00:18:06.265Z,18.60
2019-02-15T00:19:06.284Z,18.40
2019-02-15T00:20:06.273Z,18.50
2019-02-15T00:21:06.295Z,18.40
2019-02-15T00:22:06.299Z,19.40
2019-02-15T00:23:06.343Z,18.30
2019-02-15T00:24:06.286Z,18.30
2019-02-15T00:25:06.289Z,17.20
2019-02-15T00:26:06.376Z,17.80
2019-02-15T00:27:06.289Z,17.20
2019-02-15T00:28:06.308Z,18.60
2019-02-15T00:29:06.344Z,17.10
2019-02-15T00:30:06.535Z,17.10
2019-02-15T00:31:06.347Z,16.90
2019-02-15T00:32:06.360Z,16.60
2019-02-15T00:33:06.320Z,16.60
2019-02-15T00:34:06.323Z,17.50
2019-02-15T00:35:06.330Z,17.60
2019-02-15T00:36:06.413Z,17.60
2019-02-15T00:37:06.405Z,17.60
2019-02-15T00:38:06.341Z,16.60
2019-02-15T00:39:06.343Z,17.50
2019-02-15T00:40:06.348Z,18.00
2019-02-15T00:41:06.356Z,16.70
2019-02-15T00:42:06.361Z,17.00
2019-02-15T00:43:06.422Z,17.20
2019-02-15T00:44:06.356Z,16.80
2019-02-15T00:45:06.356Z,17.40
2019-02-15T00:46:06.357Z,19.60
2019-02-15T00:47:06.466Z,17.80
2019-02-15T00:48:06.404Z,17.80
2019-02-15T00:49:06.387Z,17.10
2019-02-15T00:50:06.402Z,19.30
2019-02-15T00:51:06.375Z,18.10
2019-02-15T00:52:06.384Z,18.80
2019-02-15T00:53:06.468Z,22.80
2019-02-15T00:54:06.413Z,20.60
2019-02-15T00:55:06.397Z,22.50
2019-02-15T00:56:06.407Z,18.10
2019-02-15T00:57:06.422Z,17.80
2019-02-15T00:58:06.410Z,17.80
2019-02-15T00:59:06.428Z,19.50
2019-02-15T01:00:06.432Z,19.70
2019-02-15T01:01:06.451Z,19.50
2019-02-15T01:02:06.431Z,18.80
2019-02-15T01:03:06.424Z,17.90
2019-02-15T01:04:06.484Z,19.60
2019-02-15T01:05:06.438Z,19.80
2019-02-15T01:06:06.424Z,19.40
2019-02-15T01:07:06.437Z,19.80
2019-02-15T01:08:06.485Z,19.00
2019-02-15T01:09:06.469Z,19.70
2019-02-15T01:10:06.445Z,20.20
2019-02-15T01:11:06.461Z,19.60
2019-02-15T01:12:06.452Z,18.90
2019-02-15T01:13:06.474Z,17.40
2019-02-15T01:14:06.504Z,17.20
2019-02-15T01:15:06.525Z,16.30
2019-02-15T01:16:06.469Z,16.50
2019-02-15T01:17:06.479Z,16.90
2019-02-15T01:18:06.480Z,16.60
2019-02-15T01:19:06.479Z,15.90
2019-02-15T01:20:06.521Z,16.70
2019-02-15T01:21:06.507Z,15.90
2019-02-15T01:22:06.512Z,16.90
2019-02-15T01:23:06.492Z,15.40
2019-02-15T01:24:06.510Z,15.70
2019-02-15T01:25:06.496Z,15.30
2019-02-15T01:26:06.554Z,14.50
2019-02-15T01:27:06.513Z,15.70
2019-02-15T01:28:06.521Z,15.30
2019-02-15T01:29:06.544Z,15.10
2019-02-15T01:30:06.518Z,15.40
2019-02-15T01:31:06.534Z,15.50
2019-02-15T01:32:06.583Z,14.60
2019-02-15T01:33:06.546Z,15.40
2019-02-15T01:34:06.536Z,15.00
2019-02-15T01:35:06.544Z,14.40
2019-02-15T01:36:06.600Z,14.50
2019-02-15T01:37:06.593Z,14.50
2019-02-15T01:38:06.560Z,13.50
2019-02-15T01:39:06.563Z,13.70
2019-02-15T01:40:06.548Z,13.70
2019-02-15T01:41:06.569Z,13.20
2019-02-15T01:42:06.565Z,14.10
2019-02-15T01:43:06.624Z,14.50
2019-02-15T01:44:06.563Z,14.30
2019-02-15T01:45:06.575Z,14.40
2019-02-15T01:46:06.613Z,16.00
2019-02-15T01:47:06.596Z,16.00
2019-02-15T01:48:06.595Z,15.80
2019-02-15T01:49:06.598Z,14.70
2019-02-15T01:50:06.603Z,14.70
2019-02-15T01:51:06.599Z,15.90
2019-02-15T01:52:06.625Z,15.10
2019-02-15T01:53:06.685Z,14.10
2019-02-15T01:54:06.697Z,13.90
2019-02-15T01:55:06.613Z,15.00
2019-02-15T01:56:06.613Z,17.90
2019-02-15T01:57:06.610Z,16.30
2019-02-15T01:58:06.612Z,15.80
2019-02-15T01:59:06.671Z,14.80
2019-02-15T02:00:06.625Z,13.60
2019-02-15T02:01:06.634Z,14.10
2019-02-15T02:02:06.623Z,14.20
2019-02-15T02:03:06.647Z,14.00
2019-02-15T02:04:06.659Z,15.10
2019-02-15T02:05:06.660Z,16.20
2019-02-15T02:06:06.649Z,15.40
2019-02-15T02:07:06.642Z,14.60
2019-02-15T02:08:06.662Z,14.70
2019-02-15T02:09:06.666Z,14.90
2019-02-15T02:10:06.803Z,15.20
2019-02-15T02:11:06.685Z,15.50
2019-02-15T02:12:06.663Z,16.00
2019-02-15T02:13:06.677Z,15.10
2019-02-15T02:14:06.670Z,15.20
2019-02-15T02:15:06.690Z,16.70
2019-02-15T02:16:06.723Z,15.00
2019-02-15T02:17:06.697Z,15.50
2019-02-15T02:18:06.709Z,14.50
2019-02-15T02:19:06.691Z,15.00
2019-02-15T02:20:06.726Z,15.40
2019-02-15T02:21:06.709Z,15.60
2019-02-15T02:22:06.760Z,15.40
2019-02-15T02:23:06.706Z,14.70
2019-02-15T02:24:06.706Z,15.20
2019-02-15T02:25:06.739Z,16.60
2019-02-15T02:26:06.719Z,15.90
2019-02-15T02:27:06.718Z,14.00
2019-02-15T02:28:06.759Z,14.30
2019-02-15T02:29:06.726Z,14.30
2019-02-15T02:30:06.830Z,13.90
2019-02-15T02:31:06.729Z,14.20
2019-02-15T02:32:06.747Z,14.90
2019-02-15T02:33:06.750Z,15.30
2019-02-15T02:34:06.749Z,16.00
2019-02-15T02:35:06.744Z,15.70
2019-02-15T02:36:06.801Z,15.20
2019-02-15T02:37:06.841Z,14.70
2019-02-15T02:38:06.791Z,15.30
2019-02-15T02:39:06.759Z,15.70
2019-02-15T02:40:06.761Z,15.80
2019-02-15T02:41:06.765Z,14.50
2019-02-15T02:42:06.773Z,14.30
2019-02-15T02:43:06.810Z,15.10
2019-02-15T02:44:06.813Z,14.80
2019-02-15T02:45:06.829Z,14.20
2019-02-15T02:46:06.787Z,14.30
2019-02-15T02:47:06.790Z,14.90
2019-02-15T02:48:06.797Z,15.00
2019-02-15T02:49:06.827Z,15.50
2019-02-15T02:50:06.828Z,15.70
2019-02-15T02:51:06.812Z,15.00
2019-02-15T02:52:06.814Z,14.80
2019-02-15T02:53:06.825Z,14.50
2019-02-15T02:54:06.809Z,13.90
2019-02-15T02:55:06.870Z,14.00
2019-02-15T02:56:06.807Z,14.60
2019-02-15T02:57:06.869Z,15.00
2019-02-15T02:58:06.826Z,14.70
2019-02-15T02:59:06.870Z,14.30
2019-02-15T03:00:06.891Z,14.20
2019-02-15T03:01:06.846Z,14.20
2019-02-15T03:02:06.840Z,15.30
2019-02-15T03:03:06.903Z,15.40
2019-02-15T03:04:06.860Z,15.10
2019-02-15T03:05:06.858Z,15.20
2019-02-15T03:06:06.845Z,14.50
2019-02-15T03:07:06.861Z,15.90
2019-02-15T03:08:06.868Z,14.70
2019-02-15T03:09:06.885Z,15.20
2019-02-15T03:10:06.861Z,14.70
2019-02-15T03:11:06.890Z,14.40
2019-02-15T03:12:06.883Z,14.60
2019-02-15T03:13:06.867Z,14.40
2019-02-15T03:14:11.506Z,15.50
2019-02-15T03:15:07.023Z,15.30
2019-02-15T03:16:06.877Z,15.60
2019-02-15T03:17:07.056Z,14.60
2019-02-15T03:18:06.978Z,15.10
2019-02-15T03:19:06.891Z,14.80
2019-02-15T03:20:06.987Z,14.50
2019-02-15T03:21:06.914Z,14.90
2019-02-15T03:22:06.909Z,14.00
2019-02-15T03:23:06.911Z,14.80
2019-02-15T03:24:06.912Z,14.40
2019-02-15T03:25:06.940Z,14.80
2019-02-15T03:26:07.251Z,14.70
2019-02-15T03:27:06.946Z,14.50
2019-02-15T03:28:06.935Z,14.50
2019-02-15T03:29:06.964Z,15.70
2019-02-15T03:30:06.940Z,13.80
2019-02-15T03:31:06.947Z,14.10
2019-02-15T03:32:06.952Z,14.50
2019-02-15T03:33:07.048Z,15.00
2019-02-15T03:34:07.022Z,15.00
2019-02-15T03:35:07.025Z,14.30
2019-02-15T03:36:06.988Z,13.60
2019-02-15T03:37:06.968Z,13.70
2019-02-15T03:38:06.956Z,13.70
2019-02-15T03:39:06.986Z,14.00
2019-02-15T03:40:06.987Z,14.20
2019-02-15T03:41:06.982Z,14.00
2019-02-15T03:42:07.040Z,13.20
2019-02-15T03:43:06.980Z,13.70
2019-02-15T03:44:07.032Z,13.00
2019-02-15T03:45:06.978Z,13.80
2019-02-15T03:46:06.973Z,13.20
2019-02-15T03:47:06.991Z,12.80
2019-02-15T03:48:07.047Z,13.00
2019-02-15T03:49:07.001Z,12.50
2019-02-15T03:50:07.009Z,11.90
2019-02-15T03:51:07.022Z,12.90
2019-02-15T03:52:07.064Z,12.50
2019-02-15T03:53:07.031Z,11.60
2019-02-15T03:54:06.998Z,12.10
2019-02-15T03:55:07.018Z,11.40
2019-02-15T03:56:07.057Z,12.30
2019-02-15T03:57:07.014Z,11.80
2019-02-15T03:58:07.019Z,11.40
2019-02-15T03:59:07.031Z,11.10
2019-02-15T04:00:07.088Z,11.50
2019-02-15T04:01:07.046Z,12.40
2019-02-15T04:02:07.065Z,11.90
2019-02-15T04:03:07.029Z,11.70
2019-02-15T04:04:07.047Z,12.00
2019-02-15T04:05:07.202Z,11.50
2019-02-15T04:06:07.058Z,12.20
2019-02-15T04:07:07.042Z,12.00
2019-02-15T04:08:07.052Z,11.90
2019-02-15T04:09:07.053Z,11.90
2019-02-15T04:10:07.062Z,11.50
2019-02-15T04:11:07.083Z,11.40
2019-02-15T04:12:07.063Z,11.30
2019-02-15T04:13:07.072Z,11.80
2019-02-15T04:14:07.078Z,11.70
2019-02-15T04:15:07.104Z,12.20
2019-02-15T04:16:07.083Z,12.20
2019-02-15T04:17:07.096Z,11.20
2019-02-15T04:18:07.112Z,12.10
2019-02-15T04:19:07.096Z,11.90
2019-02-15T04:20:07.081Z,12.00
2019-02-15T04:21:07.089Z,11.60
2019-02-15T04:22:07.147Z,11.10
2019-02-15T04:23:07.146Z,11.80
2019-02-15T04:24:07.133Z,12.30
2019-02-15T04:25:07.114Z,12.90
2019-02-15T04:26:07.113Z,13.20
2019-02-15T04:27:07.114Z,12.90
2019-02-15T04:28:07.116Z,12.20
2019-02-15T04:29:07.145Z,12.40
2019-02-15T04:30:07.138Z,11.70
2019-02-15T04:31:07.133Z,12.30
2019-02-15T04:32:07.150Z,12.50
2019-02-15T04:33:07.152Z,12.20
2019-02-15T04:34:07.426Z,11.90
2019-02-15T04:35:07.156Z,12.00
2019-02-15T04:36:07.177Z,12.30
2019-02-15T04:37:07.198Z,12.20
2019-02-15T04:38:07.144Z,12.90
2019-02-15T04:39:07.141Z,11.70
2019-02-15T04:40:07.169Z,12.60
2019-02-15T04:41:07.175Z,12.10
2019-02-15T04:42:07.168Z,12.40
2019-02-15T04:43:07.162Z,12.40
2019-02-15T04:44:07.178Z,12.20
2019-02-15T04:45:07.182Z,12.20
2019-02-15T04:46:07.186Z,12.40
2019-02-15T04:47:07.185Z,12.30
2019-02-15T04:48:07.183Z,13.00
2019-02-15T04:49:07.185Z,12.30
2019-02-15T04:50:07.253Z,11.80
2019-02-15T04:51:07.195Z,12.50
2019-02-15T04:52:07.193Z,12.90
2019-02-15T04:53:07.186Z,12.30
2019-02-15T04:54:07.189Z,12.50
2019-02-15T04:55:07.273Z,13.50
2019-02-15T04:56:07.252Z,13.90
2019-02-15T04:57:07.207Z,14.10
2019-02-15T04:58:07.209Z,14.50
2019-02-15T04:59:07.217Z,13.40
2019-02-15T05:00:07.222Z,12.90
2019-02-15T05:01:07.234Z,13.30
2019-02-15T05:02:07.258Z,13.50
2019-02-15T05:03:07.217Z,13.10
2019-02-15T05:04:07.217Z,13.00
2019-02-15T05:05:07.228Z,13.30
2019-02-15T05:06:07.315Z,13.50
2019-02-15T05:07:07.227Z,13.50
2019-02-15T05:08:07.235Z,13.50
2019-02-15T05:09:07.233Z,13.20
2019-02-15T05:10:07.255Z,13.00
2019-02-15T05:11:07.267Z,12.60
2019-02-15T05:12:07.271Z,12.70
2019-02-15T05:13:07.295Z,12.40
2019-02-15T05:14:07.269Z,12.60
2019-02-15T05:15:07.252Z,12.80
2019-02-15T05:16:07.271Z,12.40
2019-02-15T05:17:07.310Z,12.60
2019-02-15T05:18:07.273Z,12.80
2019-02-15T05:19:07.270Z,12.80
2019-02-15T05:20:07.304Z,12.90
2019-02-15T05:21:07.282Z,12.60
2019-02-15T05:22:07.295Z,12.20
2019-02-15T05:23:07.412Z,11.40
2019-02-15T05:24:07.291Z,12.20
2019-02-15T05:25:07.293Z,11.80
2019-02-15T05:26:07.289Z,12.20
2019-02-15T05:27:07.321Z,14.80
2019-02-15T05:28:08.996Z,13.20
2019-02-15T05:29:07.340Z,13.70
2019-02-15T05:30:07.297Z,12.90
2019-02-15T05:31:07.295Z,12.00
2019-02-15T05:32:07.306Z,12.20
2019-02-15T05:33:07.317Z,11.70
2019-02-15T05:34:07.357Z,12.40
2019-02-15T05:35:07.315Z,12.30
2019-02-15T05:36:07.327Z,12.20
2019-02-15T05:37:07.325Z,12.90
2019-02-15T05:38:07.336Z,12.10
2019-02-15T05:39:07.344Z,12.10
2019-02-15T05:40:07.363Z,12.10
2019-02-15T05:41:07.408Z,12.30
2019-02-15T05:42:07.340Z,12.10
2019-02-15T05:43:07.351Z,11.40
2019-02-15T05:44:07.375Z,12.20
2019-02-15T05:45:07.387Z,12.20
2019-02-15T05:46:07.368Z,12.60
2019-02-15T05:47:07.365Z,12.60
2019-02-15T05:48:07.376Z,12.80
2019-02-15T05:49:07.358Z,12.50
2019-02-15T05:50:07.391Z,12.90
2019-02-15T05:51:07.358Z,12.60
2019-02-15T05:52:07.363Z,13.00
2019-02-15T05:53:07.375Z,13.00
2019-02-15T05:54:07.388Z,12.40
2019-02-15T05:55:07.401Z,12.10
2019-02-15T05:56:07.432Z,13.10
2019-02-15T05:57:09.531Z,12.80
2019-02-15T05:58:07.394Z,13.00
2019-02-15T05:59:07.383Z,13.40
2019-02-15T06:00:07.406Z,13.40
2019-02-15T06:01:07.400Z,13.50
2019-02-15T06:02:07.424Z,14.20
2019-02-15T06:03:07.400Z,13.20
2019-02-15T06:04:07.417Z,14.10
2019-02-15T06:05:07.418Z,13.90
2019-02-15T06:06:07.409Z,14.20
2019-02-15T06:07:07.459Z,13.50
2019-02-15T06:08:07.420Z,13.80
2019-02-15T06:09:07.433Z,14.40
2019-02-15T06:10:07.432Z,13.50
2019-02-15T06:11:08.427Z,14.30
2019-02-15T06:12:07.478Z,13.40
2019-02-15T06:13:07.442Z,13.80
2019-02-15T06:14:07.445Z,16.70
2019-02-15T06:15:14.781Z,14.20
2019-02-15T06:16:07.464Z,14.60
2019-02-15T06:17:07.444Z,14.40
2019-02-15T06:18:07.508Z,13.80
2019-02-15T06:19:07.455Z,14.20
2019-02-15T06:20:07.472Z,14.80
2019-02-15T06:21:07.447Z,13.90
2019-02-15T06:22:07.466Z,13.60
2019-02-15T06:23:07.484Z,14.70
2019-02-15T06:24:07.499Z,14.80
2019-02-15T06:25:07.462Z,14.10
2019-02-15T06:26:07.467Z,14.20
2019-02-15T06:27:07.464Z,14.30
2019-02-15T06:28:07.492Z,13.90
2019-02-15T06:29:07.522Z,14.40
2019-02-15T06:30:07.496Z,14.30
2019-02-15T06:31:07.503Z,14.50
2019-02-15T06:32:07.570Z,15.70
2019-02-15T06:33:07.516Z,15.90
2019-02-15T06:34:07.503Z,15.00
2019-02-15T06:35:07.613Z,15.30
2019-02-15T06:36:07.499Z,14.70
2019-02-15T06:37:07.501Z,16.20
2019-02-15T06:38:07.508Z,14.70
2019-02-15T06:39:07.556Z,15.00
2019-02-15T06:40:07.515Z,14.30
2019-02-15T06:41:07.526Z,14.70
2019-02-15T06:42:07.518Z,14.70
2019-02-15T06:43:07.525Z,15.10
2019-02-15T06:44:07.571Z,14.90
2019-02-15T06:45:07.516Z,14.70
2019-02-15T06:46:07.540Z,16.00
2019-02-15T06:47:07.564Z,17.20
2019-02-15T06:48:07.538Z,15.50
2019-02-15T06:49:07.528Z,16.10
2019-02-15T06:50:07.568Z,15.10
2019-02-15T06:51:07.548Z,18.40
2019-02-15T06:52:07.554Z,16.90
2019-02-15T06:53:09.853Z,17.40
2019-02-15T06:54:07.555Z,17.20
2019-02-15T06:55:07.589Z,16.70
2019-02-15T06:56:07.559Z,17.20
2019-02-15T06:57:07.567Z,18.30
2019-02-15T06:58:07.580Z,17.00
2019-02-15T06:59:07.576Z,18.50
2019-02-15T07:00:07.609Z,17.10
2019-02-15T07:01:07.563Z,17.50
2019-02-15T07:02:07.566Z,19.20
2019-02-15T07:03:07.583Z,18.40
2019-02-15T07:04:07.578Z,17.60
2019-02-15T07:05:07.587Z,18.30
2019-02-15T07:06:07.616Z,17.80
2019-02-15T07:07:07.592Z,17.20
2019-02-15T07:08:07.609Z,17.60
2019-02-15T07:09:07.629Z,19.70
2019-02-15T07:10:07.614Z,17.90
2019-02-15T07:11:07.630Z,17.30
2019-02-15T07:12:07.635Z,16.20
2019-02-15T07:13:07.621Z,16.50
2019-02-15T07:14:07.639Z,16.80
2019-02-15T07:15:07.615Z,19.10
2019-02-15T07:16:07.687Z,18.60
2019-02-15T07:17:07.627Z,17.70
2019-02-15T07:18:07.613Z,20.20
2019-02-15T07:19:07.645Z,16.40
2019-02-15T07:20:07.635Z,17.00
2019-02-15T07:21:07.636Z,18.70
2019-02-15T07:22:07.683Z,15.90
2019-02-15T07:23:07.663Z,15.70
2019-02-15T07:24:07.654Z,17.70
2019-02-15T07:25:07.647Z,16.20
2019-02-15T07:26:07.659Z,16.90
2019-02-15T07:27:07.677Z,16.30
2019-02-15T07:28:07.690Z,16.80
2019-02-15T07:29:07.663Z,16.40
2019-02-15T07:30:07.677Z,16.90
2019-02-15T07:31:07.660Z,15.80
2019-02-15T07:32:07.660Z,14.90
2019-02-15T07:33:07.722Z,14.10
2019-02-15T07:34:07.674Z,15.30
2019-02-15T07:35:07.696Z,15.70
2019-02-15T07:36:07.689Z,14.60
2019-02-15T07:37:07.699Z,17.20
2019-02-15T07:38:07.709Z,19.90
2019-02-15T07:39:07.686Z,18.30
2019-02-15T07:40:07.710Z,16.90
2019-02-15T07:41:07.711Z,16.20
2019-02-15T07:42:07.716Z,17.70
2019-02-15T07:43:07.748Z,16.60
2019-02-15T07:44:07.750Z,16.70
2019-02-15T07:45:07.709Z,15.00
2019-02-15T07:46:07.718Z,14.70
2019-02-15T07:47:07.718Z,15.10
2019-02-15T07:48:07.738Z,15.00
2019-02-15T07:49:07.789Z,15.10
2019-02-15T07:50:07.727Z,15.90
2019-02-15T07:51:09.879Z,16.00
2019-02-15T07:52:07.744Z,15.60
2019-02-15T07:53:09.073Z,18.00
2019-02-15T07:54:07.734Z,16.00
2019-02-15T07:55:07.763Z,17.10
2019-02-15T07:56:07.756Z,18.00
2019-02-15T07:57:07.808Z,18.40
2019-02-15T07:58:07.769Z,18.60
2019-02-15T07:59:07.862Z,18.60
2019-02-15T08:00:07.769Z,22.70
2019-02-15T08:01:07.765Z,17.80
2019-02-15T08:02:07.763Z,17.80
2019-02-15T08:03:07.774Z,17.10
2019-02-15T08:04:07.776Z,19.10
2019-02-15T08:05:07.839Z,18.70
2019-02-15T08:06:07.823Z,17.30
2019-02-15T08:07:07.785Z,16.50
2019-02-15T08:08:07.780Z,16.10
2019-02-15T08:09:07.801Z,17.50
2019-02-15T08:10:07.811Z,18.00
2019-02-15T08:11:07.816Z,17.30
2019-02-15T08:12:07.808Z,15.70
2019-02-15T08:13:07.808Z,17.80
2019-02-15T08:14:14.561Z,15.50
2019-02-15T08:15:07.805Z,19.60
2019-02-15T08:16:07.850Z,21.30
2019-02-15T08:17:07.854Z,18.90
2019-02-15T08:18:07.863Z,18.00
2019-02-15T08:19:07.840Z,16.10
2019-02-15T08:20:07.834Z,16.00
2019-02-15T08:21:07.830Z,17.00
2019-02-15T08:22:07.912Z,17.20
2019-02-15T08:23:07.850Z,16.80
2019-02-15T08:24:07.861Z,15.50
2019-02-15T08:25:08.004Z,15.00
2019-02-15T08:26:07.842Z,14.80
2019-02-15T08:27:07.853Z,14.90
2019-02-15T08:28:07.898Z,15.30
2019-02-15T08:29:07.863Z,16.00
2019-02-15T08:30:07.867Z,14.70
2019-02-15T08:31:07.880Z,17.10
2019-02-15T08:32:07.876Z,15.20
2019-02-15T08:33:07.930Z,15.70
2019-02-15T08:34:07.874Z,15.50
2019-02-15T08:35:07.891Z,16.10
2019-02-15T08:36:07.889Z,15.70
2019-02-15T08:37:07.909Z,16.20
2019-02-15T08:38:07.963Z,16.00
2019-02-15T08:39:07.887Z,14.70
2019-02-15T08:40:07.933Z,15.10
2019-02-15T08:41:07.910Z,15.20
2019-02-15T08:42:07.910Z,14.10
2019-02-15T08:43:07.902Z,14.60
2019-02-15T08:44:07.991Z,15.80
2019-02-15T08:45:07.929Z,15.70
2019-02-15T08:46:07.924Z,14.80
2019-02-15T08:47:07.942Z,15.50
2019-02-15T08:48:07.990Z,15.50
2019-02-15T08:49:07.926Z,15.50
2019-02-15T08:50:07.947Z,15.10
2019-02-15T08:51:07.944Z,15.20
2019-02-15T08:52:07.939Z,16.60
2019-02-15T08:53:07.953Z,15.00
2019-02-15T08:54:08.021Z,15.40
2019-02-15T08:55:07.955Z,15.30
2019-02-15T08:56:07.967Z,16.20
2019-02-15T08:57:07.971Z,15.20
2019-02-15T08:58:07.990Z,17.20
2019-02-15T08:59:07.989Z,17.30
2019-02-15T09:00:08.029Z,21.40
2019-02-15T09:01:08.008Z,17.10
2019-02-15T09:02:07.976Z,15.20
2019-02-15T09:03:07.982Z,15.50
2019-02-15T09:04:07.994Z,15.90
2019-02-15T09:05:08.017Z,16.10
2019-02-15T09:06:08.051Z,15.30
2019-02-15T09:07:08.014Z,14.60
2019-02-15T09:08:08.014Z,15.40
2019-02-15T09:09:08.028Z,15.00
2019-02-15T09:10:08.039Z,15.00
2019-02-15T09:11:08.016Z,15.50
2019-02-15T09:12:08.085Z,15.50
2019-02-15T09:13:08.052Z,15.70
2019-02-15T09:14:08.058Z,17.50
2019-02-15T09:15:08.102Z,14.90
2019-02-15T09:16:10.385Z,15.10
2019-02-15T09:17:08.032Z,14.90
2019-02-15T09:18:08.073Z,15.20
2019-02-15T09:19:08.042Z,15.10
2019-02-15T09:20:08.041Z,15.50
2019-02-15T09:21:08.062Z,15.20
2019-02-15T09:22:08.111Z,15.50
2019-02-15T09:23:08.061Z,16.10
2019-02-15T09:24:08.094Z,15.50
2019-02-15T09:25:08.074Z,17.20
2019-02-15T09:26:08.097Z,16.00
2019-02-15T09:27:08.143Z,16.00
2019-02-15T09:28:08.082Z,16.30
2019-02-15T09:29:08.094Z,16.20
2019-02-15T09:30:08.104Z,16.90
2019-02-15T09:31:08.119Z,15.40
2019-02-15T09:32:08.114Z,15.70
2019-02-15T09:33:08.171Z,17.40
2019-02-15T09:34:08.122Z,15.80
2019-02-15T09:35:08.102Z,16.30
2019-02-15T09:36:08.134Z,16.00
2019-02-15T09:37:08.125Z,16.20
2019-02-15T09:38:08.125Z,15.00
2019-02-15T09:39:08.155Z,16.40
2019-02-15T09:40:08.174Z,15.60
2019-02-15T09:41:08.144Z,14.80
2019-02-15T09:42:08.194Z,19.10
2019-02-15T09:43:08.192Z,15.90
2019-02-15T09:44:08.169Z,16.90
2019-02-15T09:45:08.160Z,15.20
2019-02-15T09:46:08.168Z,16.30
2019-02-15T09:47:08.193Z,15.60
2019-02-15T09:48:08.172Z,15.10
2019-02-15T09:49:08.205Z,14.40
2019-02-15T09:50:09.833Z,14.60
2019-02-15T09:51:08.196Z,14.60
2019-02-15T09:52:08.197Z,14.90
2019-02-15T09:53:08.202Z,15.00
2019-02-15T09:54:08.235Z,15.70
2019-02-15T09:55:08.233Z,15.40
2019-02-15T09:56:08.194Z,15.20
2019-02-15T09:57:08.215Z,15.20
2019-02-15T09:58:08.212Z,14.90
2019-02-15T09:59:08.260Z,14.70
2019-02-15T10:00:08.214Z,15.70
2019-02-15T10:01:08.246Z,15.00
2019-02-15T10:02:08.253Z,15.30
2019-02-15T10:03:08.238Z,15.60
2019-02-15T10:04:08.237Z,15.50
2019-02-15T10:05:08.289Z,15.40
2019-02-15T10:06:08.247Z,15.70
2019-02-15T10:07:08.247Z,15.70
2019-02-15T10:08:08.260Z,16.00
2019-02-15T10:09:08.270Z,16.20
2019-02-15T10:10:08.325Z,16.30
2019-02-15T10:11:08.271Z,16.30
2019-02-15T10:12:08.339Z,15.90
2019-02-15T10:13:08.266Z,17.60
2019-02-15T10:14:08.332Z,19.30
2019-02-15T10:15:08.298Z,16.30
2019-02-15T10:16:08.333Z,15.80
2019-02-15T10:17:08.303Z,15.30
2019-02-15T10:18:08.308Z,14.40
2019-02-15T10:19:08.344Z,15.00
2019-02-15T10:20:08.304Z,16.10
2019-02-15T10:21:08.346Z,16.20
2019-02-15T10:22:08.354Z,15.70
2019-02-15T10:23:08.318Z,15.30
2019-02-15T10:24:08.313Z,14.80
2019-02-15T10:25:08.323Z,15.80
2019-02-15T10:26:08.339Z,16.50
2019-02-15T10:27:08.412Z,15.70
2019-02-15T10:28:08.388Z,16.00
2019-02-15T10:29:08.360Z,15.90
2019-02-15T10:30:08.356Z,16.10
2019-02-15T10:31:08.364Z,15.70
2019-02-15T10:32:08.593Z,16.70
2019-02-15T10:33:08.405Z,16.00
2019-02-15T10:34:08.379Z,16.00
2019-02-15T10:35:08.390Z,16.40
2019-02-15T10:36:08.371Z,16.00
2019-02-15T10:37:08.387Z,16.30
2019-02-15T10:38:08.430Z,16.00
2019-02-15T10:39:08.402Z,15.60
2019-02-15T10:40:08.419Z,16.40
2019-02-15T10:41:08.397Z,15.60
2019-02-15T10:42:08.399Z,16.60
2019-02-15T10:43:08.463Z,15.60
2019-02-15T10:44:08.426Z,17.30
2019-02-15T10:45:08.419Z,16.50
2019-02-15T10:46:08.420Z,16.10
2019-02-15T10:47:14.200Z,16.40
2019-02-15T10:48:08.443Z,16.00
2019-02-15T10:49:08.491Z,16.50
2019-02-15T10:50:08.448Z,16.10
2019-02-15T10:51:08.447Z,16.80
2019-02-15T10:52:08.478Z,16.40
2019-02-15T10:53:08.479Z,15.60
2019-02-15T10:54:08.497Z,16.20
2019-02-15T10:55:08.479Z,18.90
2019-02-15T10:56:08.462Z,16.00
2019-02-15T10:57:08.473Z,20.90
2019-02-15T10:58:08.499Z,18.20
2019-02-15T10:59:08.563Z,18.70
2019-02-15T11:00:08.524Z,16.60
2019-02-15T11:01:08.506Z,16.10
2019-02-15T11:02:08.495Z,16.00
2019-02-15T11:03:08.506Z,16.90
2019-02-15T11:04:08.510Z,16.20
2019-02-15T11:05:08.557Z,16.30
2019-02-15T11:06:08.521Z,15.80
2019-02-15T11:07:08.525Z,16.20
2019-02-15T11:08:08.535Z,16.00
2019-02-15T11:09:08.539Z,15.80
2019-02-15T11:10:08.637Z,15.70
2019-02-15T11:11:08.555Z,16.00
2019-02-15T11:12:08.603Z,15.90
2019-02-15T11:13:08.573Z,15.80
2019-02-15T11:14:08.563Z,15.60
2019-02-15T11:15:08.586Z,15.40
2019-02-15T11:16:08.606Z,15.60
2019-02-15T11:17:08.575Z,16.00
2019-02-15T11:18:08.581Z,15.00
2019-02-15T11:19:08.607Z,15.00
2019-02-15T11:20:08.599Z,14.90
2019-02-15T11:21:08.622Z,14.40
2019-02-15T11:22:08.595Z,13.90
2019-02-15T11:23:08.623Z,13.90
2019-02-15T11:24:08.611Z,15.10
2019-02-15T11:25:08.612Z,14.50
2019-02-15T11:26:08.822Z,15.70
2019-02-15T11:27:08.625Z,14.70
2019-02-15T11:28:08.628Z,14.30
2019-02-15T11:29:08.634Z,14.40
2019-02-15T11:30:08.642Z,14.70
2019-02-15T11:31:08.697Z,14.20
2019-02-15T11:32:08.647Z,14.30
2019-02-15T11:33:08.715Z,14.40
2019-02-15T11:34:08.656Z,14.60
2019-02-15T11:35:08.675Z,14.90
2019-02-15T11:36:08.671Z,13.80
2019-02-15T11:37:08.718Z,15.20
2019-02-15T11:38:08.678Z,14.70
2019-02-15T11:39:08.690Z,14.70
2019-02-15T11:40:08.695Z,14.20
2019-02-15T11:41:11.257Z,14.50
2019-02-15T11:42:08.767Z,14.80
2019-02-15T11:43:08.737Z,14.10
2019-02-15T11:44:08.731Z,15.80
2019-02-15T11:45:08.735Z,14.20
2019-02-15T11:46:08.731Z,14.90
2019-02-15T11:47:08.735Z,14.40
2019-02-15T11:48:08.766Z,14.60
2019-02-15T11:49:08.740Z,14.50
2019-02-15T11:50:08.775Z,14.60
2019-02-15T11:51:08.784Z,14.10
2019-02-15T11:52:08.817Z,14.10
2019-02-15T11:53:08.778Z,14.10
2019-02-15T11:54:08.778Z,13.20
2019-02-15T11:55:08.790Z,12.80
2019-02-15T11:56:08.780Z,13.10
2019-02-15T11:57:08.804Z,12.50
2019-02-15T11:58:08.853Z,12.80
2019-02-15T11:59:08.783Z,13.40
2019-02-15T12:00:14.260Z,12.40
2019-02-15T12:01:08.844Z,11.70
2019-02-15T12:02:08.819Z,12.40
2019-02-15T12:03:08.824Z,11.70
2019-02-15T12:04:08.824Z,12.60
2019-02-15T12:05:08.833Z,11.10
2019-02-15T12:06:08.828Z,12.00
2019-02-15T12:07:08.871Z,11.10
2019-02-15T12:08:08.848Z,10.80
2019-02-15T12:09:08.895Z,10.70
2019-02-15T12:10:08.869Z,10.50
2019-02-15T12:11:10.902Z,10.70
2019-02-15T12:12:10.987Z,10.80
2019-02-15T12:13:08.873Z,10.80
2019-02-15T12:14:08.931Z,11.00
2019-02-15T12:15:08.886Z,10.50
2019-02-15T12:16:08.907Z,10.40
2019-02-15T12:17:08.896Z,10.60
2019-02-15T12:18:08.902Z,10.60
2019-02-15T12:19:08.896Z,10.00
2019-02-15T12:20:08.969Z,10.30
2019-02-15T12:21:08.910Z,10.30
2019-02-15T12:22:08.914Z,10.10
2019-02-15T12:23:08.983Z,9.80
2019-02-15T12:24:08.942Z,9.60
2019-02-15T12:25:08.934Z,9.60
2019-02-15T12:26:08.992Z,10.60
2019-02-15T12:27:08.939Z,10.40
2019-02-15T12:28:08.962Z,10.00
2019-02-15T12:29:08.967Z,10.10
2019-02-15T12:30:08.991Z,9.50
2019-02-15T12:31:09.004Z,9.70
2019-02-15T12:32:08.971Z,9.20
2019-02-15T12:33:08.989Z,9.60
2019-02-15T12:34:08.983Z,9.00
2019-02-15T12:35:09.011Z,9.40
2019-02-15T12:36:09.009Z,10.30
2019-02-15T12:37:09.018Z,9.10
2019-02-15T12:38:09.014Z,8.60
2019-02-15T12:39:09.011Z,9.00
2019-02-15T12:40:09.015Z,9.80
2019-02-15T12:41:09.076Z,9.00
2019-02-15T12:42:09.047Z,9.00
2019-02-15T12:43:09.053Z,8.80
2019-02-15T12:44:09.066Z,8.90
2019-02-15T12:45:09.042Z,8.50
2019-02-15T12:46:09.048Z,8.40
2019-02-15T12:47:14.834Z,8.10
2019-02-15T12:48:09.098Z,8.40
2019-02-15T12:49:09.065Z,8.40
2019-02-15T12:50:09.108Z,9.30
2019-02-15T12:51:09.093Z,8.60
2019-02-15T12:52:09.147Z,8.50
2019-02-15T12:53:09.116Z,8.30